CheckWX is a tool to help pilots better visualize weather data.  It is not intended as a substitute for an official pre-flight weather briefing.

14:43:24 UTC

CYDC METAR
Princeton Airport
Town of Princeton, Canada
Current

17 mins ago

CYDC 201426Z 07004KT 15SM FEW028 SCT048 BKN057 OVC077 10/05 A2976 RMK SF1SC3SC4AC1 SF TR SLP074 DENSITY ALT 2500FT
Observed
May-20 @ 14:26 UTC
Wind
  • 070° at 4 KTS
Visibility
15 SM
Flight Rules
VFR
Cloud Levels
  • Few at 2,800' AGL
  • Scattered at 4,800' AGL
  • Broken at 5,700' AGL
  • Overcast at 7,700' AGL
Temperature
10°C / 50°F
Dewpoint
C / 41°F
Humidity
71%
Altimeter
29.76" Hg
Pressure
1007.82 hPa
Previous

43 mins ago

CYDC 201400Z 00000KT 15SM -RA BKN045 OVC077 10/06 A2976 RMK SC6AC2 SLP074 DENSITY ALT 2500FT
Observed
May-20 @ 14:00 UTC
Visibility
15 SM
Flight Rules
VFR
Conditions
Light Rain
Cloud Levels
  • Broken at 4,500' AGL
  • Overcast at 7,700' AGL
Temperature
10°C / 50°F
Dewpoint
C / 43°F
Humidity
76%
Altimeter
29.76" Hg
Pressure
1007.82 hPa
Previous

2 hours ago

CYDC 201300Z VRB04KT 10SM -RA OVC048 10/07 A2975 RMK SC8 SLP071 DENSITY ALT 2400FT
Observed
May-20 @ 13:00 UTC
Wind
  • Variable at 4 KTS
Visibility
10 SM
Flight Rules
VFR
Conditions
Light Rain
Cloud Levels
  • Overcast at 4,800' AGL
Temperature
10°C / 50°F
Dewpoint
C / 45°F
Humidity
82%
Altimeter
29.75" Hg
Pressure
1007.42 hPa